Aviation Digital Data Service (ADDS)

Output produced by METARs form (1253 UTC 24 January 2021)
found at http://www.aviationweather.gov/metar/data/
 
Forecast for: KFAT (FRESNO , CA, US)
Text: KFAT 241120Z 2412/2512 30004KT 5SM BR BKN050
Forecast period: 1200 UTC 24 January 2021 to 0400 UTC 25 January 2021
Forecast type: FROM: standard forecast or significant change
Winds: from the WNW (300 degrees) at 5 MPH (4 knots; 2.1 m/s)
Visibility: 5 miles (8 km)
Ceiling: 5000 feet AGL
Clouds: broken clouds at 5000 feet AGL
Weather: BR  (mist)
Text: FM250400 35005KT P6SM -RA OVC050
Forecast period: 0400 to 1200 UTC 25 January 2021
Forecast type: FROM: standard forecast or significant change
Winds: from the N (350 degrees) at 6 MPH (5 knots; 2.6 m/s)
Visibility: 6 or more miles (10+ km)
Ceiling: 5000 feet AGL
Clouds: overcast cloud deck at 5000 feet AGL
Weather: -RA  (light rain)
Text: TEMPO 2507/2511 4SM RA BR OVC030
Forecast period: 0700 to 1100 UTC 25 January 2021
Forecast type: TEMPORARY: The following changes expected for less than half the time period
Visibility: 4 miles (6 km)
Ceiling: 3000 feet AGL
Clouds: overcast cloud deck at 3000 feet AGL
Weather: RA BR  (moderate rain, mist)